sensor_id;sensor_type;location;lat;lon;timestamp;temperature;humidity
20722;DHT22;10522;52.198;9.890;2024-01-16T00:01:59;0.90;99.90
20722;DHT22;10522;52.198;9.890;2024-01-16T00:04:25;1.00;99.90
20722;DHT22;10522;52.198;9.890;2024-01-16T00:06:52;1.00;99.90
20722;DHT22;10522;52.198;9.890;2024-01-16T00:09:18;1.10;99.90
20722;DHT22;10522;52.198;9.890;2024-01-16T00:11:43;1.00;99.90
20722;DHT22;10522;52.198;9.890;2024-01-16T00:14:09;1.00;99.90
20722;DHT22;10522;52.198;9.890;2024-01-16T00:16:47;1.00;99.90
20722;DHT22;10522;52.198;9.890;2024-01-16T00:19:14;1.00;99.90
20722;DHT22;10522;52.198;9.890;2024-01-16T00:21:43;1.00;99.90
20722;DHT22;10522;52.198;9.890;2024-01-16T00:24:11;1.00;99.90
20722;DHT22;10522;52.198;9.890;2024-01-16T00:26:36;1.00;99.90
20722;DHT22;10522;52.198;9.890;2024-01-16T00:29:02;1.00;99.90
20722;DHT22;10522;52.198;9.890;2024-01-16T00:31:28;1.00;99.90
20722;DHT22;10522;52.198;9.890;2024-01-16T00:33:53;1.00;99.90
20722;DHT22;10522;52.198;9.890;2024-01-16T00:36:19;1.10;99.90
20722;DHT22;10522;52.198;9.890;2024-01-16T00:38:45;1.10;99.90
20722;DHT22;10522;52.198;9.890;2024-01-16T00:41:13;1.10;99.90
20722;DHT22;10522;52.198;9.890;2024-01-16T00:43:40;1.10;99.90
20722;DHT22;10522;52.198;9.890;2024-01-16T00:46:06;1.10;99.90
20722;DHT22;10522;52.198;9.890;2024-01-16T00:48:32;1.10;99.90
20722;DHT22;10522;52.198;9.890;2024-01-16T00:50:57;1.00;99.90
20722;DHT22;10522;52.198;9.890;2024-01-16T00:53:23;1.10;99.90
20722;DHT22;10522;52.198;9.890;2024-01-16T00:55:48;1.10;99.90
20722;DHT22;10522;52.198;9.890;2024-01-16T00:58:14;1.00;99.90
20722;DHT22;10522;52.198;9.890;2024-01-16T01:00:40;1.10;99.90
20722;DHT22;10522;52.198;9.890;2024-01-16T01:03:06;1.10;99.90
20722;DHT22;10522;52.198;9.890;2024-01-16T01:05:31;1.10;99.90
20722;DHT22;10522;52.198;9.890;2024-01-16T01:07:57;1.00;99.90
20722;DHT22;10522;52.198;9.890;2024-01-16T01:10:23;1.00;99.90
20722;DHT22;10522;52.198;9.890;2024-01-16T01:12:49;1.00;99.90
20722;DHT22;10522;52.198;9.890;2024-01-16T01:15:17;1.00;99.90
20722;DHT22;10522;52.198;9.890;2024-01-16T01:17:42;1.00;99.90
20722;DHT22;10522;52.198;9.890;2024-01-16T01:20:08;1.00;99.90
20722;DHT22;10522;52.198;9.890;2024-01-16T01:22:35;1.00;99.90
20722;DHT22;10522;52.198;9.890;2024-01-16T01:25:00;1.00;99.90
20722;DHT22;10522;52.198;9.890;2024-01-16T01:27:26;1.00;99.90
20722;DHT22;10522;52.198;9.890;2024-01-16T01:29:51;1.00;99.90
20722;DHT22;10522;52.198;9.890;2024-01-16T01:32:17;1.00;99.90
20722;DHT22;10522;52.198;9.890;2024-01-16T01:34:43;1.00;99.90
20722;DHT22;10522;52.198;9.890;2024-01-16T01:37:08;1.00;99.90
20722;DHT22;10522;52.198;9.890;2024-01-16T01:39:34;1.00;99.90
20722;DHT22;10522;52.198;9.890;2024-01-16T01:41:59;0.90;99.90
20722;DHT22;10522;52.198;9.890;2024-01-16T01:44:25;0.90;99.90
20722;DHT22;10522;52.198;9.890;2024-01-16T01:46:53;1.00;99.90
20722;DHT22;10522;52.198;9.890;2024-01-16T01:49:19;1.00;99.90
20722;DHT22;10522;52.198;9.890;2024-01-16T01:51:45;1.00;99.90
20722;DHT22;10522;52.198;9.890;2024-01-16T01:54:11;1.00;99.90
20722;DHT22;10522;52.198;9.890;2024-01-16T01:56:37;1.00;99.90
20722;DHT22;10522;52.198;9.890;2024-01-16T01:59:03;1.00;99.90
20722;DHT22;10522;52.198;9.890;2024-01-16T02:01:31;1.00;99.90
20722;DHT22;10522;52.198;9.890;2024-01-16T02:03:57;1.00;99.90
20722;DHT22;10522;52.198;9.890;2024-01-16T02:06:24;0.90;99.90
20722;DHT22;10522;52.198;9.890;2024-01-16T02:08:51;0.90;99.90
20722;DHT22;10522;52.198;9.890;2024-01-16T02:11:16;1.00;99.90
20722;DHT22;10522;52.198;9.890;2024-01-16T02:13:42;1.00;99.90
20722;DHT22;10522;52.198;9.890;2024-01-16T02:16:18;0.90;99.90
20722;DHT22;10522;52.198;9.890;2024-01-16T02:18:44;0.90;99.90
20722;DHT22;10522;52.198;9.890;2024-01-16T02:21:12;0.90;99.90
20722;DHT22;10522;52.198;9.890;2024-01-16T02:23:40;0.90;99.90
20722;DHT22;10522;52.198;9.890;2024-01-16T02:26:06;0.90;99.90
20722;DHT22;10522;52.198;9.890;2024-01-16T02:28:32;0.90;99.90
20722;DHT22;10522;52.198;9.890;2024-01-16T02:30:58;0.90;99.90
20722;DHT22;10522;52.198;9.890;2024-01-16T02:33:23;0.80;99.90
20722;DHT22;10522;52.198;9.890;2024-01-16T02:35:49;0.80;99.90
20722;DHT22;10522;52.198;9.890;2024-01-16T02:38:14;0.70;99.90
20722;DHT22;10522;52.198;9.890;2024-01-16T02:40:40;0.70;99.90
20722;DHT22;10522;52.198;9.890;2024-01-16T02:43:06;0.70;99.90
20722;DHT22;10522;52.198;9.890;2024-01-16T02:45:33;0.70;99.90
20722;DHT22;10522;52.198;9.890;2024-01-16T02:47:58;0.80;99.90
20722;DHT22;10522;52.198;9.890;2024-01-16T02:50:24;0.80;99.90
20722;DHT22;10522;52.198;9.890;2024-01-16T02:52:50;0.70;99.90
20722;DHT22;10522;52.198;9.890;2024-01-16T02:55:16;0.70;99.90
20722;DHT22;10522;52.198;9.890;2024-01-16T02:57:41;0.70;99.90
20722;DHT22;10522;52.198;9.890;2024-01-16T03:00:07;0.70;99.90
20722;DHT22;10522;52.198;9.890;2024-01-16T03:02:34;0.70;99.90
20722;DHT22;10522;52.198;9.890;2024-01-16T03:04:59;0.60;99.90
20722;DHT22;10522;52.198;9.890;2024-01-16T03:07:25;0.70;99.90
20722;DHT22;10522;52.198;9.890;2024-01-16T03:09:51;0.70;99.90
20722;DHT22;10522;52.198;9.890;2024-01-16T03:12:18;0.60;99.90
20722;DHT22;10522;52.198;9.890;2024-01-16T03:14:43;0.60;99.90
20722;DHT22;10522;52.198;9.890;2024-01-16T03:17:09;0.50;99.90
20722;DHT22;10522;52.198;9.890;2024-01-16T03:19:34;0.50;99.90
20722;DHT22;10522;52.198;9.890;2024-01-16T03:22:00;0.40;99.90
20722;DHT22;10522;52.198;9.890;2024-01-16T03:24:25;0.40;99.90
20722;DHT22;10522;52.198;9.890;2024-01-16T03:26:51;0.40;99.90
20722;DHT22;10522;52.198;9.890;2024-01-16T03:29:17;0.50;99.90
20722;DHT22;10522;52.198;9.890;2024-01-16T03:31:43;0.50;99.90
20722;DHT22;10522;52.198;9.890;2024-01-16T03:34:09;0.50;99.90
20722;DHT22;10522;52.198;9.890;2024-01-16T03:36:36;0.50;99.90
20722;DHT22;10522;52.198;9.890;2024-01-16T03:39:01;0.40;99.90
20722;DHT22;10522;52.198;9.890;2024-01-16T03:41:27;0.30;99.90
20722;DHT22;10522;52.198;9.890;2024-01-16T03:43:53;0.30;99.90
20722;DHT22;10522;52.198;9.890;2024-01-16T03:46:22;0.30;99.90
20722;DHT22;10522;52.198;9.890;2024-01-16T03:48:48;0.10;99.90
20722;DHT22;10522;52.198;9.890;2024-01-16T03:51:13;0.10;99.90
20722;DHT22;10522;52.198;9.890;2024-01-16T03:53:41;0.10;99.90
20722;DHT22;10522;52.198;9.890;2024-01-16T03:56:07;0.00;99.90
20722;DHT22;10522;52.198;9.890;2024-01-16T03:58:33;0.00;99.90
20722;DHT22;10522;52.198;9.890;2024-01-16T04:00:59;0.00;99.90
20722;DHT22;10522;52.198;9.890;2024-01-16T04:03:25;0.10;99.90
20722;DHT22;10522;52.198;9.890;2024-01-16T04:05:50;0.10;99.90
20722;DHT22;10522;52.198;9.890;2024-01-16T04:08:16;0.10;99.90
20722;DHT22;10522;52.198;9.890;2024-01-16T04:10:42;0.00;99.90
20722;DHT22;10522;52.198;9.890;2024-01-16T04:13:07;0.10;99.90
20722;DHT22;10522;52.198;9.890;2024-01-16T04:15:33;0.10;99.90
20722;DHT22;10522;52.198;9.890;2024-01-16T04:17:59;0.10;99.90
20722;DHT22;10522;52.198;9.890;2024-01-16T04:20:25;0.10;99.90
20722;DHT22;10522;52.198;9.890;2024-01-16T04:22:51;0.10;99.90
20722;DHT22;10522;52.198;9.890;2024-01-16T04:25:16;-0.10;99.90
20722;DHT22;10522;52.198;9.890;2024-01-16T04:27:42;0.10;99.90
20722;DHT22;10522;52.198;9.890;2024-01-16T04:30:08;0.00;99.90
20722;DHT22;10522;52.198;9.890;2024-01-16T04:32:34;0.00;99.90
20722;DHT22;10522;52.198;9.890;2024-01-16T04:35:00;0.00;99.90
20722;DHT22;10522;52.198;9.890;2024-01-16T04:37:25;-0.10;99.90
20722;DHT22;10522;52.198;9.890;2024-01-16T04:39:51;-0.10;99.90
20722;DHT22;10522;52.198;9.890;2024-01-16T04:42:17;-0.10;99.90
20722;DHT22;10522;52.198;9.890;2024-01-16T04:44:43;-0.10;99.90
20722;DHT22;10522;52.198;9.890;2024-01-16T04:47:09;-0.10;99.90
20722;DHT22;10522;52.198;9.890;2024-01-16T04:49:34;-0.10;99.90
20722;DHT22;10522;52.198;9.890;2024-01-16T04:52:00;-0.10;99.90
20722;DHT22;10522;52.198;9.890;2024-01-16T04:54:25;0.00;99.90
20722;DHT22;10522;52.198;9.890;2024-01-16T04:56:51;0.00;99.90
20722;DHT22;10522;52.198;9.890;2024-01-16T04:59:16;0.00;99.90
20722;DHT22;10522;52.198;9.890;2024-01-16T05:01:42;0.00;99.90
20722;DHT22;10522;52.198;9.890;2024-01-16T05:04:08;0.00;99.90
20722;DHT22;10522;52.198;9.890;2024-01-16T05:06:35;0.00;99.90
20722;DHT22;10522;52.198;9.890;2024-01-16T05:09:01;0.00;99.90
20722;DHT22;10522;52.198;9.890;2024-01-16T05:11:26;0.00;99.90
20722;DHT22;10522;52.198;9.890;2024-01-16T05:13:52;0.00;99.90
20722;DHT22;10522;52.198;9.890;2024-01-16T05:16:24;0.00;99.90
20722;DHT22;10522;52.198;9.890;2024-01-16T05:18:50;0.10;99.90
20722;DHT22;10522;52.198;9.890;2024-01-16T05:21:15;0.10;99.90
20722;DHT22;10522;52.198;9.890;2024-01-16T05:23:41;0.10;99.90
20722;DHT22;10522;52.198;9.890;2024-01-16T05:26:07;0.10;99.90
20722;DHT22;10522;52.198;9.890;2024-01-16T05:28:32;0.00;99.90
20722;DHT22;10522;52.198;9.890;2024-01-16T05:30:59;0.00;99.90
20722;DHT22;10522;52.198;9.890;2024-01-16T05:33:25;-0.10;99.90
20722;DHT22;10522;52.198;9.890;2024-01-16T05:35:51;-0.10;99.90
20722;DHT22;10522;52.198;9.890;2024-01-16T05:38:16;0.00;99.90
20722;DHT22;10522;52.198;9.890;2024-01-16T05:40:42;0.00;99.90
20722;DHT22;10522;52.198;9.890;2024-01-16T05:43:09;0.00;99.90
20722;DHT22;10522;52.198;9.890;2024-01-16T05:45:35;0.00;99.90
20722;DHT22;10522;52.198;9.890;2024-01-16T05:48:01;0.10;99.90
20722;DHT22;10522;52.198;9.890;2024-01-16T05:50:26;0.10;99.90
20722;DHT22;10522;52.198;9.890;2024-01-16T05:52:52;0.10;99.90
20722;DHT22;10522;52.198;9.890;2024-01-16T05:55:17;0.00;99.90
20722;DHT22;10522;52.198;9.890;2024-01-16T05:57:43;0.00;99.90
20722;DHT22;10522;52.198;9.890;2024-01-16T06:00:10;0.00;99.90
20722;DHT22;10522;52.198;9.890;2024-01-16T06:02:41;-0.10;99.90
20722;DHT22;10522;52.198;9.890;2024-01-16T06:05:08;-0.20;99.90
20722;DHT22;10522;52.198;9.890;2024-01-16T06:07:34;-0.20;99.90
20722;DHT22;10522;52.198;9.890;2024-01-16T06:09:59;-0.40;99.90
20722;DHT22;10522;52.198;9.890;2024-01-16T06:12:25;-0.40;99.90
20722;DHT22;10522;52.198;9.890;2024-01-16T06:14:51;-0.30;99.90
20722;DHT22;10522;52.198;9.890;2024-01-16T06:17:16;-0.30;99.90
20722;DHT22;10522;52.198;9.890;2024-01-16T06:19:42;-0.30;99.90
20722;DHT22;10522;52.198;9.890;2024-01-16T06:22:08;-0.30;99.90
20722;DHT22;10522;52.198;9.890;2024-01-16T06:24:34;-0.20;99.90
20722;DHT22;10522;52.198;9.890;2024-01-16T06:27:04;-0.20;99.90
20722;DHT22;10522;52.198;9.890;2024-01-16T06:29:47;-0.30;99.90
20722;DHT22;10522;52.198;9.890;2024-01-16T06:32:13;-0.30;99.90
20722;DHT22;10522;52.198;9.890;2024-01-16T06:34:40;-0.20;99.90
20722;DHT22;10522;52.198;9.890;2024-01-16T06:37:10;-0.20;99.90
20722;DHT22;10522;52.198;9.890;2024-01-16T06:39:36;-0.20;99.90
20722;DHT22;10522;52.198;9.890;2024-01-16T06:42:03;-0.20;99.90
20722;DHT22;10522;52.198;9.890;2024-01-16T06:44:32;-0.30;99.90
20722;DHT22;10522;52.198;9.890;2024-01-16T06:46:57;-0.20;99.90
20722;DHT22;10522;52.198;9.890;2024-01-16T06:49:23;-0.20;99.90
20722;DHT22;10522;52.198;9.890;2024-01-16T06:51:52;-0.10;99.90
20722;DHT22;10522;52.198;9.890;2024-01-16T06:54:17;-0.10;99.90
20722;DHT22;10522;52.198;9.890;2024-01-16T06:56:45;-0.10;99.90
20722;DHT22;10522;52.198;9.890;2024-01-16T06:59:11;0.10;99.90
20722;DHT22;10522;52.198;9.890;2024-01-16T07:01:37;0.10;99.90
20722;DHT22;10522;52.198;9.890;2024-01-16T07:04:03;0.10;99.90
20722;DHT22;10522;52.198;9.890;2024-01-16T07:06:28;0.10;99.90
20722;DHT22;10522;52.198;9.890;2024-01-16T07:08:55;0.20;99.90
20722;DHT22;10522;52.198;9.890;2024-01-16T07:11:21;0.20;99.90
20722;DHT22;10522;52.198;9.890;2024-01-16T07:13:47;0.10;99.90
20722;DHT22;10522;52.198;9.890;2024-01-16T07:18:48;0.00;99.90
20722;DHT22;10522;52.198;9.890;2024-01-16T07:21:18;-0.10;99.90
20722;DHT22;10522;52.198;9.890;2024-01-16T07:23:45;-0.10;99.90
20722;DHT22;10522;52.198;9.890;2024-01-16T07:26:10;-0.20;99.90
20722;DHT22;10522;52.198;9.890;2024-01-16T07:28:39;-0.20;99.90
20722;DHT22;10522;52.198;9.890;2024-01-16T07:31:08;-0.20;99.90
20722;DHT22;10522;52.198;9.890;2024-01-16T07:33:35;-0.20;99.90
20722;DHT22;10522;52.198;9.890;2024-01-16T07:36:00;-0.10;99.90
20722;DHT22;10522;52.198;9.890;2024-01-16T07:38:26;-0.10;99.90
20722;DHT22;10522;52.198;9.890;2024-01-16T07:40:54;0.00;99.90
20722;DHT22;10522;52.198;9.890;2024-01-16T07:43:21;0.00;99.90
20722;DHT22;10522;52.198;9.890;2024-01-16T07:45:47;0.10;99.90
20722;DHT22;10522;52.198;9.890;2024-01-16T07:48:13;0.10;99.90
20722;DHT22;10522;52.198;9.890;2024-01-16T07:50:41;0.20;99.90
20722;DHT22;10522;52.198;9.890;2024-01-16T07:53:07;0.20;99.90
20722;DHT22;10522;52.198;9.890;2024-01-16T07:55:36;0.20;99.90
20722;DHT22;10522;52.198;9.890;2024-01-16T07:58:04;0.10;99.90
20722;DHT22;10522;52.198;9.890;2024-01-16T08:00:32;0.10;99.90
20722;DHT22;10522;52.198;9.890;2024-01-16T08:02:58;0.10;99.90
20722;DHT22;10522;52.198;9.890;2024-01-16T08:05:24;0.10;99.90
20722;DHT22;10522;52.198;9.890;2024-01-16T08:07:54;0.10;99.90
20722;DHT22;10522;52.198;9.890;2024-01-16T08:10:20;0.10;99.90
20722;DHT22;10522;52.198;9.890;2024-01-16T08:15:14;0.20;99.90
20722;DHT22;10522;52.198;9.890;2024-01-16T08:17:40;0.20;99.90
20722;DHT22;10522;52.198;9.890;2024-01-16T08:20:06;0.20;99.90
20722;DHT22;10522;52.198;9.890;2024-01-16T08:22:35;0.20;99.90
20722;DHT22;10522;52.198;9.890;2024-01-16T08:25:01;0.20;99.90
20722;DHT22;10522;52.198;9.890;2024-01-16T08:27:26;0.40;99.90
20722;DHT22;10522;52.198;9.890;2024-01-16T08:29:54;0.30;99.90
20722;DHT22;10522;52.198;9.890;2024-01-16T08:32:19;0.40;99.90
20722;DHT22;10522;52.198;9.890;2024-01-16T08:34:45;0.40;99.90
20722;DHT22;10522;52.198;9.890;2024-01-16T08:37:10;0.50;99.90
20722;DHT22;10522;52.198;9.890;2024-01-16T08:39:36;0.40;99.90
20722;DHT22;10522;52.198;9.890;2024-01-16T08:42:01;0.50;99.90
20722;DHT22;10522;52.198;9.890;2024-01-16T08:44:28;0.50;99.90
20722;DHT22;10522;52.198;9.890;2024-01-16T08:46:54;0.50;99.90
20722;DHT22;10522;52.198;9.890;2024-01-16T08:49:20;0.50;99.90
20722;DHT22;10522;52.198;9.890;2024-01-16T08:51:45;0.60;99.90
20722;DHT22;10522;52.198;9.890;2024-01-16T08:54:11;0.60;99.90
20722;DHT22;10522;52.198;9.890;2024-01-16T08:56:37;0.60;99.90
20722;DHT22;10522;52.198;9.890;2024-01-16T08:59:03;0.60;99.90
20722;DHT22;10522;52.198;9.890;2024-01-16T09:01:28;0.70;99.90
20722;DHT22;10522;52.198;9.890;2024-01-16T09:03:54;0.70;99.90
20722;DHT22;10522;52.198;9.890;2024-01-16T09:06:21;0.60;99.90
20722;DHT22;10522;52.198;9.890;2024-01-16T09:08:47;0.60;99.90
20722;DHT22;10522;52.198;9.890;2024-01-16T09:11:12;0.60;99.90
20722;DHT22;10522;52.198;9.890;2024-01-16T09:13:38;0.60;99.90
20722;DHT22;10522;52.198;9.890;2024-01-16T09:16:04;0.50;99.90
20722;DHT22;10522;52.198;9.890;2024-01-16T09:18:30;0.60;99.90
20722;DHT22;10522;52.198;9.890;2024-01-16T09:20:55;0.70;99.90
20722;DHT22;10522;52.198;9.890;2024-01-16T09:23:21;0.70;99.90
20722;DHT22;10522;52.198;9.890;2024-01-16T09:25:46;0.70;99.90
20722;DHT22;10522;52.198;9.890;2024-01-16T09:28:12;0.70;99.90
20722;DHT22;10522;52.198;9.890;2024-01-16T09:30:38;0.70;99.90
20722;DHT22;10522;52.198;9.890;2024-01-16T09:33:04;0.80;99.90
20722;DHT22;10522;52.198;9.890;2024-01-16T09:35:32;0.80;99.90
20722;DHT22;10522;52.198;9.890;2024-01-16T09:37:58;0.90;99.90
20722;DHT22;10522;52.198;9.890;2024-01-16T09:40:25;0.90;99.90
20722;DHT22;10522;52.198;9.890;2024-01-16T09:42:50;0.90;99.90
20722;DHT22;10522;52.198;9.890;2024-01-16T09:45:20;0.90;99.90
20722;DHT22;10522;52.198;9.890;2024-01-16T09:47:47;0.90;99.90
20722;DHT22;10522;52.198;9.890;2024-01-16T09:50:15;1.00;99.90
20722;DHT22;10522;52.198;9.890;2024-01-16T09:52:44;1.00;99.90
20722;DHT22;10522;52.198;9.890;2024-01-16T09:55:10;1.10;99.90
20722;DHT22;10522;52.198;9.890;2024-01-16T09:57:39;1.10;99.90
20722;DHT22;10522;52.198;9.890;2024-01-16T10:00:10;1.20;99.90
20722;DHT22;10522;52.198;9.890;2024-01-16T10:02:39;1.20;99.90
20722;DHT22;10522;52.198;9.890;2024-01-16T10:05:15;1.30;99.90
20722;DHT22;10522;52.198;9.890;2024-01-16T10:07:42;1.30;99.90
20722;DHT22;10522;52.198;9.890;2024-01-16T10:10:11;1.30;99.90
20722;DHT22;10522;52.198;9.890;2024-01-16T10:12:38;1.40;99.90
20722;DHT22;10522;52.198;9.890;2024-01-16T10:15:07;1.40;99.90
20722;DHT22;10522;52.198;9.890;2024-01-16T10:17:41;1.40;99.90
20722;DHT22;10522;52.198;9.890;2024-01-16T10:20:11;1.40;99.90
20722;DHT22;10522;52.198;9.890;2024-01-16T10:22:39;1.50;99.90
20722;DHT22;10522;52.198;9.890;2024-01-16T10:27:32;1.60;99.90
20722;DHT22;10522;52.198;9.890;2024-01-16T10:29:58;1.80;99.90
20722;DHT22;10522;52.198;9.890;2024-01-16T10:32:28;1.80;99.90
20722;DHT22;10522;52.198;9.890;2024-01-16T10:35:11;1.80;99.90
20722;DHT22;10522;52.198;9.890;2024-01-16T10:37:50;1.90;99.90
20722;DHT22;10522;52.198;9.890;2024-01-16T10:40:23;2.00;99.90
20722;DHT22;10522;52.198;9.890;2024-01-16T10:43:03;2.00;99.90
20722;DHT22;10522;52.198;9.890;2024-01-16T10:45:30;1.90;99.90
20722;DHT22;10522;52.198;9.890;2024-01-16T10:48:06;2.00;99.90
20722;DHT22;10522;52.198;9.890;2024-01-16T10:50:36;2.00;99.90
20722;DHT22;10522;52.198;9.890;2024-01-16T10:53:13;2.00;99.90
20722;DHT22;10522;52.198;9.890;2024-01-16T10:55:49;2.00;99.90
20722;DHT22;10522;52.198;9.890;2024-01-16T10:58:17;2.00;99.90
20722;DHT22;10522;52.198;9.890;2024-01-16T11:00:47;2.00;99.90
20722;DHT22;10522;52.198;9.890;2024-01-16T11:03:25;2.00;99.90
20722;DHT22;10522;52.198;9.890;2024-01-16T11:05:57;1.90;99.90
20722;DHT22;10522;52.198;9.890;2024-01-16T11:08:23;1.90;99.90
20722;DHT22;10522;52.198;9.890;2024-01-16T11:11:11;2.00;99.90
20722;DHT22;10522;52.198;9.890;2024-01-16T11:13:39;1.90;99.90
20722;DHT22;10522;52.198;9.890;2024-01-16T11:16:08;1.90;99.90
20722;DHT22;10522;52.198;9.890;2024-01-16T11:18:35;1.90;99.90
20722;DHT22;10522;52.198;9.890;2024-01-16T11:21:07;1.80;99.90
20722;DHT22;10522;52.198;9.890;2024-01-16T11:23:33;1.70;99.90
20722;DHT22;10522;52.198;9.890;2024-01-16T11:26:00;1.70;99.90
20722;DHT22;10522;52.198;9.890;2024-01-16T11:28:28;1.70;99.90
20722;DHT22;10522;52.198;9.890;2024-01-16T11:30:57;1.60;99.90
20722;DHT22;10522;52.198;9.890;2024-01-16T11:35:57;1.60;99.90
20722;DHT22;10522;52.198;9.890;2024-01-16T11:38:24;1.50;99.90
20722;DHT22;10522;52.198;9.890;2024-01-16T11:40:52;1.50;99.90
20722;DHT22;10522;52.198;9.890;2024-01-16T11:46:07;1.50;99.90
20722;DHT22;10522;52.198;9.890;2024-01-16T11:48:34;1.50;99.90
20722;DHT22;10522;52.198;9.890;2024-01-16T11:51:00;1.60;99.90
20722;DHT22;10522;52.198;9.890;2024-01-16T11:53:33;1.60;99.90
20722;DHT22;10522;52.198;9.890;2024-01-16T12:01:18;1.80;99.90
20722;DHT22;10522;52.198;9.890;2024-01-16T12:03:45;2.00;99.90
20722;DHT22;10522;52.198;9.890;2024-01-16T12:06:10;2.10;99.90
20722;DHT22;10522;52.198;9.890;2024-01-16T12:08:36;2.10;99.90
20722;DHT22;10522;52.198;9.890;2024-01-16T12:11:03;1.90;99.90
20722;DHT22;10522;52.198;9.890;2024-01-16T12:13:29;1.90;99.90
20722;DHT22;10522;52.198;9.890;2024-01-16T12:16:02;1.90;99.90
20722;DHT22;10522;52.198;9.890;2024-01-16T12:18:29;1.90;99.90
20722;DHT22;10522;52.198;9.890;2024-01-16T12:20:55;1.90;99.90
20722;DHT22;10522;52.198;9.890;2024-01-16T12:23:21;1.90;99.90
20722;DHT22;10522;52.198;9.890;2024-01-16T12:25:52;1.80;99.90
20722;DHT22;10522;52.198;9.890;2024-01-16T12:28:21;1.70;99.90
20722;DHT22;10522;52.198;9.890;2024-01-16T12:30:49;1.70;99.90
20722;DHT22;10522;52.198;9.890;2024-01-16T12:33:16;1.60;99.90
20722;DHT22;10522;52.198;9.890;2024-01-16T12:35:43;1.70;99.90
20722;DHT22;10522;52.198;9.890;2024-01-16T12:38:11;1.60;99.90
20722;DHT22;10522;52.198;9.890;2024-01-16T12:40:46;1.60;99.90
20722;DHT22;10522;52.198;9.890;2024-01-16T12:43:13;1.60;99.90
20722;DHT22;10522;52.198;9.890;2024-01-16T12:45:38;1.50;99.90
20722;DHT22;10522;52.198;9.890;2024-01-16T12:48:04;1.50;99.90
20722;DHT22;10522;52.198;9.890;2024-01-16T12:50:32;1.50;99.90
20722;DHT22;10522;52.198;9.890;2024-01-16T12:53:07;1.50;99.90
20722;DHT22;10522;52.198;9.890;2024-01-16T12:55:38;1.60;99.90
20722;DHT22;10522;52.198;9.890;2024-01-16T12:58:18;1.50;99.90
20722;DHT22;10522;52.198;9.890;2024-01-16T13:00:45;1.50;99.90
20722;DHT22;10522;52.198;9.890;2024-01-16T13:03:19;1.50;99.90
20722;DHT22;10522;52.198;9.890;2024-01-16T13:05:52;1.50;99.90
20722;DHT22;10522;52.198;9.890;2024-01-16T13:08:19;1.60;99.90
20722;DHT22;10522;52.198;9.890;2024-01-16T13:10:46;1.50;99.90
20722;DHT22;10522;52.198;9.890;2024-01-16T13:13:13;1.60;99.90
20722;DHT22;10522;52.198;9.890;2024-01-16T13:15:39;1.60;99.90
20722;DHT22;10522;52.198;9.890;2024-01-16T13:18:05;1.50;99.90
20722;DHT22;10522;52.198;9.890;2024-01-16T13:20:31;1.60;99.90
20722;DHT22;10522;52.198;9.890;2024-01-16T13:22:57;1.50;99.90
20722;DHT22;10522;52.198;9.890;2024-01-16T13:25:22;1.50;99.90
20722;DHT22;10522;52.198;9.890;2024-01-16T13:27:48;1.50;99.90
20722;DHT22;10522;52.198;9.890;2024-01-16T13:30:13;1.40;99.90
20722;DHT22;10522;52.198;9.890;2024-01-16T13:32:40;1.40;99.90
20722;DHT22;10522;52.198;9.890;2024-01-16T13:35:05;1.40;99.90
20722;DHT22;10522;52.198;9.890;2024-01-16T13:37:34;1.40;99.90
20722;DHT22;10522;52.198;9.890;2024-01-16T13:40:04;1.40;99.90
20722;DHT22;10522;52.198;9.890;2024-01-16T13:42:34;1.40;99.90
20722;DHT22;10522;52.198;9.890;2024-01-16T13:45:00;1.30;99.90
20722;DHT22;10522;52.198;9.890;2024-01-16T13:47:26;1.30;99.90
20722;DHT22;10522;52.198;9.890;2024-01-16T13:49:51;1.30;99.90
20722;DHT22;10522;52.198;9.890;2024-01-16T13:52:17;1.30;99.90
20722;DHT22;10522;52.198;9.890;2024-01-16T13:54:43;1.30;99.90
20722;DHT22;10522;52.198;9.890;2024-01-16T13:57:09;1.30;99.90
20722;DHT22;10522;52.198;9.890;2024-01-16T13:59:35;1.20;99.90
20722;DHT22;10522;52.198;9.890;2024-01-16T14:02:02;1.20;99.90
20722;DHT22;10522;52.198;9.890;2024-01-16T14:04:28;1.20;99.90
20722;DHT22;10522;52.198;9.890;2024-01-16T14:06:53;1.20;99.90
20722;DHT22;10522;52.198;9.890;2024-01-16T14:09:20;1.10;99.90
20722;DHT22;10522;52.198;9.890;2024-01-16T14:11:45;1.20;99.90
20722;DHT22;10522;52.198;9.890;2024-01-16T14:14:11;1.10;99.90
20722;DHT22;10522;52.198;9.890;2024-01-16T14:16:36;1.20;99.90
20722;DHT22;10522;52.198;9.890;2024-01-16T14:19:02;1.10;99.90
20722;DHT22;10522;52.198;9.890;2024-01-16T14:21:28;1.10;99.90
20722;DHT22;10522;52.198;9.890;2024-01-16T14:23:53;1.10;99.90
20722;DHT22;10522;52.198;9.890;2024-01-16T14:26:19;1.10;99.90
20722;DHT22;10522;52.198;9.890;2024-01-16T14:28:45;1.00;99.90
20722;DHT22;10522;52.198;9.890;2024-01-16T14:31:10;1.00;99.90
20722;DHT22;10522;52.198;9.890;2024-01-16T14:33:36;1.00;99.90
20722;DHT22;10522;52.198;9.890;2024-01-16T14:36:01;1.00;99.90
20722;DHT22;10522;52.198;9.890;2024-01-16T14:38:27;1.00;99.90
20722;DHT22;10522;52.198;9.890;2024-01-16T14:40:52;1.00;99.90
20722;DHT22;10522;52.198;9.890;2024-01-16T14:43:21;1.00;99.90
20722;DHT22;10522;52.198;9.890;2024-01-16T14:45:46;1.00;99.90
20722;DHT22;10522;52.198;9.890;2024-01-16T14:48:12;1.00;99.90
20722;DHT22;10522;52.198;9.890;2024-01-16T14:50:39;0.90;99.90
20722;DHT22;10522;52.198;9.890;2024-01-16T14:53:04;0.90;99.90
20722;DHT22;10522;52.198;9.890;2024-01-16T14:55:31;0.90;99.90
20722;DHT22;10522;52.198;9.890;2024-01-16T14:57:56;0.90;99.90
20722;DHT22;10522;52.198;9.890;2024-01-16T15:00:25;0.90;99.90
20722;DHT22;10522;52.198;9.890;2024-01-16T15:02:52;0.80;99.90
20722;DHT22;10522;52.198;9.890;2024-01-16T15:05:19;0.80;99.90
20722;DHT22;10522;52.198;9.890;2024-01-16T15:07:46;0.80;99.90
20722;DHT22;10522;52.198;9.890;2024-01-16T15:10:12;0.80;99.90
20722;DHT22;10522;52.198;9.890;2024-01-16T15:12:38;0.70;99.90
20722;DHT22;10522;52.198;9.890;2024-01-16T15:15:08;0.70;99.90
20722;DHT22;10522;52.198;9.890;2024-01-16T15:17:35;0.70;99.90
20722;DHT22;10522;52.198;9.890;2024-01-16T15:20:01;0.60;99.90
20722;DHT22;10522;52.198;9.890;2024-01-16T15:22:26;0.60;99.90
20722;DHT22;10522;52.198;9.890;2024-01-16T15:24:52;0.60;99.90
20722;DHT22;10522;52.198;9.890;2024-01-16T15:27:18;0.60;99.90
20722;DHT22;10522;52.198;9.890;2024-01-16T15:29:45;0.60;99.90
20722;DHT22;10522;52.198;9.890;2024-01-16T15:32:11;0.60;99.90
20722;DHT22;10522;52.198;9.890;2024-01-16T15:34:37;0.50;99.90
20722;DHT22;10522;52.198;9.890;2024-01-16T15:37:03;0.50;99.90
20722;DHT22;10522;52.198;9.890;2024-01-16T15:39:29;0.40;99.90
20722;DHT22;10522;52.198;9.890;2024-01-16T15:41:54;0.30;99.90
20722;DHT22;10522;52.198;9.890;2024-01-16T15:44:20;0.30;99.90
20722;DHT22;10522;52.198;9.890;2024-01-16T15:47:02;0.30;99.90
20722;DHT22;10522;52.198;9.890;2024-01-16T15:49:29;0.20;99.90
20722;DHT22;10522;52.198;9.890;2024-01-16T15:51:56;0.20;99.90
20722;DHT22;10522;52.198;9.890;2024-01-16T15:54:24;0.20;99.90
20722;DHT22;10522;52.198;9.890;2024-01-16T15:56:52;0.20;99.90
20722;DHT22;10522;52.198;9.890;2024-01-16T15:59:18;0.20;99.90
20722;DHT22;10522;52.198;9.890;2024-01-16T16:01:44;0.10;99.90